sensor_id;sensor_type;location;lat;lon;timestamp;temperature;humidity
2387;DHT22;49473;50.772;8.768;2022-10-31T00:01:39;10.30;99.90
2387;DHT22;49473;50.772;8.768;2022-10-31T00:04:06;10.30;99.90
2387;DHT22;49473;50.772;8.768;2022-10-31T00:06:33;10.40;99.90
2387;DHT22;49473;50.772;8.768;2022-10-31T00:09:03;10.40;99.90
2387;DHT22;49473;50.772;8.768;2022-10-31T00:11:30;10.50;99.90
2387;DHT22;49473;50.772;8.768;2022-10-31T00:13:57;10.50;99.90
2387;DHT22;49473;50.772;8.768;2022-10-31T00:16:25;10.50;99.90
2387;DHT22;49473;50.772;8.768;2022-10-31T00:18:55;10.40;99.90
2387;DHT22;49473;50.772;8.768;2022-10-31T00:21:23;10.30;99.90
2387;DHT22;49473;50.772;8.768;2022-10-31T00:23:50;10.30;99.90
2387;DHT22;49473;50.772;8.768;2022-10-31T00:26:19;10.30;99.90
2387;DHT22;49473;50.772;8.768;2022-10-31T00:28:46;10.40;99.90
2387;DHT22;49473;50.772;8.768;2022-10-31T00:31:14;10.40;99.90
2387;DHT22;49473;50.772;8.768;2022-10-31T00:33:41;10.40;99.90
2387;DHT22;49473;50.772;8.768;2022-10-31T00:36:11;10.40;99.90
2387;DHT22;49473;50.772;8.768;2022-10-31T00:38:40;10.40;99.90
2387;DHT22;49473;50.772;8.768;2022-10-31T00:41:07;10.40;99.90
2387;DHT22;49473;50.772;8.768;2022-10-31T00:43:36;10.30;99.90
2387;DHT22;49473;50.772;8.768;2022-10-31T00:46:03;10.30;99.90
2387;DHT22;49473;50.772;8.768;2022-10-31T00:48:29;10.30;99.90
2387;DHT22;49473;50.772;8.768;2022-10-31T00:50:56;10.20;99.90
2387;DHT22;49473;50.772;8.768;2022-10-31T00:53:23;10.10;99.90
2387;DHT22;49473;50.772;8.768;2022-10-31T00:55:50;10.20;99.90
2387;DHT22;49473;50.772;8.768;2022-10-31T00:58:17;10.20;99.90
2387;DHT22;49473;50.772;8.768;2022-10-31T01:00:46;10.20;99.90
2387;DHT22;49473;50.772;8.768;2022-10-31T01:03:20;10.20;99.90
2387;DHT22;49473;50.772;8.768;2022-10-31T01:05:55;10.20;99.90
2387;DHT22;49473;50.772;8.768;2022-10-31T01:08:22;10.20;99.90
2387;DHT22;49473;50.772;8.768;2022-10-31T01:10:58;10.20;99.90
2387;DHT22;49473;50.772;8.768;2022-10-31T01:13:25;10.10;99.90
2387;DHT22;49473;50.772;8.768;2022-10-31T01:15:55;10.10;99.90
2387;DHT22;49473;50.772;8.768;2022-10-31T01:18:22;10.00;99.90
2387;DHT22;49473;50.772;8.768;2022-10-31T01:20:57;10.00;99.90
2387;DHT22;49473;50.772;8.768;2022-10-31T01:23:24;10.00;99.90
2387;DHT22;49473;50.772;8.768;2022-10-31T01:25:59;10.00;99.90
2387;DHT22;49473;50.772;8.768;2022-10-31T01:28:26;10.00;99.90
2387;DHT22;49473;50.772;8.768;2022-10-31T01:30:54;10.00;99.90
2387;DHT22;49473;50.772;8.768;2022-10-31T01:33:21;10.00;99.90
2387;DHT22;49473;50.772;8.768;2022-10-31T01:35:47;10.00;99.90
2387;DHT22;49473;50.772;8.768;2022-10-31T01:38:14;10.00;99.90
2387;DHT22;49473;50.772;8.768;2022-10-31T01:40:41;10.00;99.90
2387;DHT22;49473;50.772;8.768;2022-10-31T01:43:12;10.00;99.90
2387;DHT22;49473;50.772;8.768;2022-10-31T01:45:39;10.00;99.90
2387;DHT22;49473;50.772;8.768;2022-10-31T01:48:11;10.00;99.90
2387;DHT22;49473;50.772;8.768;2022-10-31T01:50:40;10.00;99.90
2387;DHT22;49473;50.772;8.768;2022-10-31T01:53:10;10.00;99.90
2387;DHT22;49473;50.772;8.768;2022-10-31T01:55:40;10.00;99.90
2387;DHT22;49473;50.772;8.768;2022-10-31T01:58:11;10.10;99.90
2387;DHT22;49473;50.772;8.768;2022-10-31T02:00:40;10.10;99.90
2387;DHT22;49473;50.772;8.768;2022-10-31T02:03:11;10.10;99.90
2387;DHT22;49473;50.772;8.768;2022-10-31T02:05:38;10.10;99.90
2387;DHT22;49473;50.772;8.768;2022-10-31T02:08:09;10.10;99.90
2387;DHT22;49473;50.772;8.768;2022-10-31T02:10:38;10.10;99.90
2387;DHT22;49473;50.772;8.768;2022-10-31T02:13:07;10.10;99.90
2387;DHT22;49473;50.772;8.768;2022-10-31T02:15:35;10.10;99.90
2387;DHT22;49473;50.772;8.768;2022-10-31T02:18:03;10.10;99.90
2387;DHT22;49473;50.772;8.768;2022-10-31T02:20:37;10.10;99.90
2387;DHT22;49473;50.772;8.768;2022-10-31T02:23:49;10.10;99.90
2387;DHT22;49473;50.772;8.768;2022-10-31T02:26:38;10.10;99.90
2387;DHT22;49473;50.772;8.768;2022-10-31T02:32:05;10.00;99.90
2387;DHT22;49473;50.772;8.768;2022-10-31T02:34:36;9.90;99.90
2387;DHT22;49473;50.772;8.768;2022-10-31T02:37:09;9.90;99.90
2387;DHT22;49473;50.772;8.768;2022-10-31T02:39:44;9.90;99.90
2387;DHT22;49473;50.772;8.768;2022-10-31T02:42:17;10.00;99.90
2387;DHT22;49473;50.772;8.768;2022-10-31T02:44:51;10.00;99.90
2387;DHT22;49473;50.772;8.768;2022-10-31T02:47:27;10.00;99.90
2387;DHT22;49473;50.772;8.768;2022-10-31T02:49:57;10.00;99.90
2387;DHT22;49473;50.772;8.768;2022-10-31T02:52:28;10.00;99.90
2387;DHT22;49473;50.772;8.768;2022-10-31T02:54:55;10.00;99.90
2387;DHT22;49473;50.772;8.768;2022-10-31T02:57:24;9.90;99.90
2387;DHT22;49473;50.772;8.768;2022-10-31T02:59:54;10.00;99.90
2387;DHT22;49473;50.772;8.768;2022-10-31T03:02:43;10.00;99.90
2387;DHT22;49473;50.772;8.768;2022-10-31T03:05:26;9.90;99.90
2387;DHT22;49473;50.772;8.768;2022-10-31T03:08:00;9.90;99.90
2387;DHT22;49473;50.772;8.768;2022-10-31T03:10:35;9.90;99.90
2387;DHT22;49473;50.772;8.768;2022-10-31T03:13:10;9.80;99.90
2387;DHT22;49473;50.772;8.768;2022-10-31T03:15:42;9.80;99.90
2387;DHT22;49473;50.772;8.768;2022-10-31T03:18:15;9.80;99.90
2387;DHT22;49473;50.772;8.768;2022-10-31T03:20:47;9.80;99.90
2387;DHT22;49473;50.772;8.768;2022-10-31T03:23:18;9.80;99.90
2387;DHT22;49473;50.772;8.768;2022-10-31T03:25:46;9.90;99.90
2387;DHT22;49473;50.772;8.768;2022-10-31T03:28:17;10.00;99.90
2387;DHT22;49473;50.772;8.768;2022-10-31T03:30:46;10.00;99.90
2387;DHT22;49473;50.772;8.768;2022-10-31T03:33:17;9.80;99.90
2387;DHT22;49473;50.772;8.768;2022-10-31T03:35:48;9.80;99.90
2387;DHT22;49473;50.772;8.768;2022-10-31T03:38:17;9.80;99.90
2387;DHT22;49473;50.772;8.768;2022-10-31T03:40:46;9.80;99.90
2387;DHT22;49473;50.772;8.768;2022-10-31T03:43:17;9.80;99.90
2387;DHT22;49473;50.772;8.768;2022-10-31T03:45:46;9.80;99.90
2387;DHT22;49473;50.772;8.768;2022-10-31T03:48:16;9.80;99.90
2387;DHT22;49473;50.772;8.768;2022-10-31T03:50:49;9.80;99.90
2387;DHT22;49473;50.772;8.768;2022-10-31T03:53:24;9.80;99.90
2387;DHT22;49473;50.772;8.768;2022-10-31T03:55:56;9.80;99.90
2387;DHT22;49473;50.772;8.768;2022-10-31T03:58:28;9.80;99.90
2387;DHT22;49473;50.772;8.768;2022-10-31T04:00:57;9.80;99.90
2387;DHT22;49473;50.772;8.768;2022-10-31T04:03:28;9.60;99.90
2387;DHT22;49473;50.772;8.768;2022-10-31T04:05:59;9.50;99.90
2387;DHT22;49473;50.772;8.768;2022-10-31T04:08:31;9.40;99.90
2387;DHT22;49473;50.772;8.768;2022-10-31T04:11:00;9.50;99.90
2387;DHT22;49473;50.772;8.768;2022-10-31T04:13:31;9.50;99.90
2387;DHT22;49473;50.772;8.768;2022-10-31T04:16:00;9.50;99.90
2387;DHT22;49473;50.772;8.768;2022-10-31T04:18:28;9.50;99.90
2387;DHT22;49473;50.772;8.768;2022-10-31T04:21:03;9.60;99.90
2387;DHT22;49473;50.772;8.768;2022-10-31T04:23:31;9.60;99.90
2387;DHT22;49473;50.772;8.768;2022-10-31T04:25:58;9.60;99.90
2387;DHT22;49473;50.772;8.768;2022-10-31T04:28:25;9.70;99.90
2387;DHT22;49473;50.772;8.768;2022-10-31T04:30:53;9.80;99.90
2387;DHT22;49473;50.772;8.768;2022-10-31T04:33:20;9.80;99.90
2387;DHT22;49473;50.772;8.768;2022-10-31T04:35:48;9.90;99.90
2387;DHT22;49473;50.772;8.768;2022-10-31T04:38:15;9.80;99.90
2387;DHT22;49473;50.772;8.768;2022-10-31T04:40:41;9.70;99.90
2387;DHT22;49473;50.772;8.768;2022-10-31T04:43:08;9.70;99.90
2387;DHT22;49473;50.772;8.768;2022-10-31T04:45:35;9.70;99.90
2387;DHT22;49473;50.772;8.768;2022-10-31T04:48:02;9.80;99.90
2387;DHT22;49473;50.772;8.768;2022-10-31T04:50:29;9.80;99.90
2387;DHT22;49473;50.772;8.768;2022-10-31T04:52:57;9.80;99.90
2387;DHT22;49473;50.772;8.768;2022-10-31T04:55:24;9.70;99.90
2387;DHT22;49473;50.772;8.768;2022-10-31T04:57:51;9.70;99.90
2387;DHT22;49473;50.772;8.768;2022-10-31T05:00:20;9.70;99.90
2387;DHT22;49473;50.772;8.768;2022-10-31T05:02:48;9.70;99.90
2387;DHT22;49473;50.772;8.768;2022-10-31T05:05:17;9.60;99.90
2387;DHT22;49473;50.772;8.768;2022-10-31T05:07:45;9.60;99.90
2387;DHT22;49473;50.772;8.768;2022-10-31T05:10:16;9.60;99.90
2387;DHT22;49473;50.772;8.768;2022-10-31T05:12:46;9.70;99.90
2387;DHT22;49473;50.772;8.768;2022-10-31T05:15:14;9.60;99.90
2387;DHT22;49473;50.772;8.768;2022-10-31T05:17:41;9.60;99.90
2387;DHT22;49473;50.772;8.768;2022-10-31T05:20:08;9.60;99.90
2387;DHT22;49473;50.772;8.768;2022-10-31T05:22:35;9.60;99.90
2387;DHT22;49473;50.772;8.768;2022-10-31T05:25:02;9.50;99.90
2387;DHT22;49473;50.772;8.768;2022-10-31T05:27:31;9.50;99.90
2387;DHT22;49473;50.772;8.768;2022-10-31T05:29:58;9.50;99.90
2387;DHT22;49473;50.772;8.768;2022-10-31T05:32:24;9.40;99.90
2387;DHT22;49473;50.772;8.768;2022-10-31T05:34:51;9.40;99.90
2387;DHT22;49473;50.772;8.768;2022-10-31T05:37:18;9.40;99.90
2387;DHT22;49473;50.772;8.768;2022-10-31T05:39:45;9.50;99.90
2387;DHT22;49473;50.772;8.768;2022-10-31T05:42:11;9.50;99.90
2387;DHT22;49473;50.772;8.768;2022-10-31T05:44:40;9.50;99.90
2387;DHT22;49473;50.772;8.768;2022-10-31T05:47:06;9.30;99.90
2387;DHT22;49473;50.772;8.768;2022-10-31T05:49:33;9.30;99.90
2387;DHT22;49473;50.772;8.768;2022-10-31T05:52:00;9.20;99.90
2387;DHT22;49473;50.772;8.768;2022-10-31T05:54:27;9.30;99.90
2387;DHT22;49473;50.772;8.768;2022-10-31T05:56:54;9.20;99.90
2387;DHT22;49473;50.772;8.768;2022-10-31T05:59:20;9.10;99.90
2387;DHT22;49473;50.772;8.768;2022-10-31T06:01:48;8.90;99.90
2387;DHT22;49473;50.772;8.768;2022-10-31T06:04:15;8.90;99.90
2387;DHT22;49473;50.772;8.768;2022-10-31T06:06:42;8.70;99.90
2387;DHT22;49473;50.772;8.768;2022-10-31T06:09:09;8.60;99.90
2387;DHT22;49473;50.772;8.768;2022-10-31T06:11:35;8.50;99.90
2387;DHT22;49473;50.772;8.768;2022-10-31T06:14:02;8.50;99.90
2387;DHT22;49473;50.772;8.768;2022-10-31T06:16:29;8.40;99.90
2387;DHT22;49473;50.772;8.768;2022-10-31T06:18:57;8.50;99.90
2387;DHT22;49473;50.772;8.768;2022-10-31T06:21:24;8.50;99.90
2387;DHT22;49473;50.772;8.768;2022-10-31T06:23:51;8.60;99.90
2387;DHT22;49473;50.772;8.768;2022-10-31T06:26:18;8.60;99.90
2387;DHT22;49473;50.772;8.768;2022-10-31T06:28:44;8.50;99.90
2387;DHT22;49473;50.772;8.768;2022-10-31T06:31:11;8.50;99.90
2387;DHT22;49473;50.772;8.768;2022-10-31T06:33:40;8.60;99.90
2387;DHT22;49473;50.772;8.768;2022-10-31T06:36:09;8.60;99.90
2387;DHT22;49473;50.772;8.768;2022-10-31T06:38:36;8.60;99.90
2387;DHT22;49473;50.772;8.768;2022-10-31T06:41:03;8.70;99.90
2387;DHT22;49473;50.772;8.768;2022-10-31T06:43:31;8.60;99.90
2387;DHT22;49473;50.772;8.768;2022-10-31T06:46:01;8.60;99.90
2387;DHT22;49473;50.772;8.768;2022-10-31T06:48:27;8.60;99.90
2387;DHT22;49473;50.772;8.768;2022-10-31T06:50:57;8.60;99.90
2387;DHT22;49473;50.772;8.768;2022-10-31T06:53:25;8.60;99.90
2387;DHT22;49473;50.772;8.768;2022-10-31T06:55:55;8.70;99.90
2387;DHT22;49473;50.772;8.768;2022-10-31T06:58:22;8.80;99.90
2387;DHT22;49473;50.772;8.768;2022-10-31T07:00:49;8.80;99.90
2387;DHT22;49473;50.772;8.768;2022-10-31T07:03:17;8.70;99.90
2387;DHT22;49473;50.772;8.768;2022-10-31T07:05:45;8.60;99.90
2387;DHT22;49473;50.772;8.768;2022-10-31T07:08:13;8.70;99.90
2387;DHT22;49473;50.772;8.768;2022-10-31T07:10:43;8.70;99.90
2387;DHT22;49473;50.772;8.768;2022-10-31T07:13:12;8.70;99.90
2387;DHT22;49473;50.772;8.768;2022-10-31T07:15:41;8.90;99.90
2387;DHT22;49473;50.772;8.768;2022-10-31T07:18:11;9.10;99.90
2387;DHT22;49473;50.772;8.768;2022-10-31T07:20:38;9.20;99.90
2387;DHT22;49473;50.772;8.768;2022-10-31T07:23:05;9.30;99.90
2387;DHT22;49473;50.772;8.768;2022-10-31T07:25:31;9.50;99.90
2387;DHT22;49473;50.772;8.768;2022-10-31T07:28:00;9.50;99.90
2387;DHT22;49473;50.772;8.768;2022-10-31T07:30:27;9.60;99.90
2387;DHT22;49473;50.772;8.768;2022-10-31T07:32:53;9.50;99.90
2387;DHT22;49473;50.772;8.768;2022-10-31T07:35:23;9.70;99.90
2387;DHT22;49473;50.772;8.768;2022-10-31T07:37:50;9.70;99.90
2387;DHT22;49473;50.772;8.768;2022-10-31T07:40:17;9.70;99.90
2387;DHT22;49473;50.772;8.768;2022-10-31T07:42:45;9.70;99.90
2387;DHT22;49473;50.772;8.768;2022-10-31T07:45:16;9.90;99.90
2387;DHT22;49473;50.772;8.768;2022-10-31T07:47:45;10.00;99.90
2387;DHT22;49473;50.772;8.768;2022-10-31T07:50:14;10.00;99.90
2387;DHT22;49473;50.772;8.768;2022-10-31T07:52:41;10.10;99.90
2387;DHT22;49473;50.772;8.768;2022-10-31T07:55:09;10.10;99.90
2387;DHT22;49473;50.772;8.768;2022-10-31T07:57:36;10.10;99.90
2387;DHT22;49473;50.772;8.768;2022-10-31T08:00:04;10.20;99.90
2387;DHT22;49473;50.772;8.768;2022-10-31T08:02:32;10.50;99.90
2387;DHT22;49473;50.772;8.768;2022-10-31T08:04:59;10.70;99.90
2387;DHT22;49473;50.772;8.768;2022-10-31T08:07:27;10.90;99.90
2387;DHT22;49473;50.772;8.768;2022-10-31T08:09:54;11.20;99.90
2387;DHT22;49473;50.772;8.768;2022-10-31T08:12:21;11.40;99.90
2387;DHT22;49473;50.772;8.768;2022-10-31T08:14:48;11.50;99.90
2387;DHT22;49473;50.772;8.768;2022-10-31T08:17:15;11.40;99.90
2387;DHT22;49473;50.772;8.768;2022-10-31T08:19:43;11.60;99.90
2387;DHT22;49473;50.772;8.768;2022-10-31T08:22:10;11.90;99.90
2387;DHT22;49473;50.772;8.768;2022-10-31T08:24:37;12.20;99.90
2387;DHT22;49473;50.772;8.768;2022-10-31T08:27:05;12.30;99.90
2387;DHT22;49473;50.772;8.768;2022-10-31T08:29:32;12.40;99.90
2387;DHT22;49473;50.772;8.768;2022-10-31T08:31:59;12.60;99.90
2387;DHT22;49473;50.772;8.768;2022-10-31T08:34:25;12.60;99.90
2387;DHT22;49473;50.772;8.768;2022-10-31T08:36:54;12.80;99.90
2387;DHT22;49473;50.772;8.768;2022-10-31T08:39:20;12.80;99.90
2387;DHT22;49473;50.772;8.768;2022-10-31T08:41:47;12.60;99.90
2387;DHT22;49473;50.772;8.768;2022-10-31T08:44:14;12.60;99.90
2387;DHT22;49473;50.772;8.768;2022-10-31T08:46:42;12.80;99.90
2387;DHT22;49473;50.772;8.768;2022-10-31T08:49:08;13.30;99.90
2387;DHT22;49473;50.772;8.768;2022-10-31T08:51:35;14.10;99.90
2387;DHT22;49473;50.772;8.768;2022-10-31T08:54:03;14.80;99.90
2387;DHT22;49473;50.772;8.768;2022-10-31T08:56:30;16.00;99.90
2387;DHT22;49473;50.772;8.768;2022-10-31T08:58:57;17.40;99.90
2387;DHT22;49473;50.772;8.768;2022-10-31T09:01:24;18.60;99.90
2387;DHT22;49473;50.772;8.768;2022-10-31T09:03:51;19.40;99.90
2387;DHT22;49473;50.772;8.768;2022-10-31T09:06:17;20.40;99.90
2387;DHT22;49473;50.772;8.768;2022-10-31T09:08:44;21.30;99.90
2387;DHT22;49473;50.772;8.768;2022-10-31T09:11:12;22.00;99.90
2387;DHT22;49473;50.772;8.768;2022-10-31T09:13:39;22.80;99.90
2387;DHT22;49473;50.772;8.768;2022-10-31T09:16:06;23.70;99.90
2387;DHT22;49473;50.772;8.768;2022-10-31T09:18:33;24.40;99.90
2387;DHT22;49473;50.772;8.768;2022-10-31T09:21:00;25.00;99.90
2387;DHT22;49473;50.772;8.768;2022-10-31T09:23:27;25.20;99.90
2387;DHT22;49473;50.772;8.768;2022-10-31T09:25:55;25.70;99.90
2387;DHT22;49473;50.772;8.768;2022-10-31T09:28:23;26.50;99.90
2387;DHT22;49473;50.772;8.768;2022-10-31T09:30:52;27.10;99.90
2387;DHT22;49473;50.772;8.768;2022-10-31T09:33:19;27.40;99.90
2387;DHT22;49473;50.772;8.768;2022-10-31T09:35:47;27.90;99.90
2387;DHT22;49473;50.772;8.768;2022-10-31T09:38:15;28.40;99.90
2387;DHT22;49473;50.772;8.768;2022-10-31T09:40:46;28.60;99.90
2387;DHT22;49473;50.772;8.768;2022-10-31T09:43:21;29.20;99.90
2387;DHT22;49473;50.772;8.768;2022-10-31T09:45:58;29.20;99.90
2387;DHT22;49473;50.772;8.768;2022-10-31T09:48:44;29.30;99.90
2387;DHT22;49473;50.772;8.768;2022-10-31T09:51:17;29.60;99.70
2387;DHT22;49473;50.772;8.768;2022-10-31T09:53:49;30.20;99.00
2387;DHT22;49473;50.772;8.768;2022-10-31T09:56:19;30.90;98.30
2387;DHT22;49473;50.772;8.768;2022-10-31T09:58:49;31.30;96.20
2387;DHT22;49473;50.772;8.768;2022-10-31T10:01:28;31.60;95.60
2387;DHT22;49473;50.772;8.768;2022-10-31T10:03:59;31.90;94.30
2387;DHT22;49473;50.772;8.768;2022-10-31T10:06:29;32.00;93.20
2387;DHT22;49473;50.772;8.768;2022-10-31T10:08:59;32.00;91.90
2387;DHT22;49473;50.772;8.768;2022-10-31T10:11:43;32.40;92.10
2387;DHT22;49473;50.772;8.768;2022-10-31T10:14:24;33.00;91.40
2387;DHT22;49473;50.772;8.768;2022-10-31T10:17:06;33.40;90.20
2387;DHT22;49473;50.772;8.768;2022-10-31T10:19:49;33.50;87.40
2387;DHT22;49473;50.772;8.768;2022-10-31T10:22:23;33.90;87.00
2387;DHT22;49473;50.772;8.768;2022-10-31T10:25:02;34.10;84.70
2387;DHT22;49473;50.772;8.768;2022-10-31T10:27:58;33.40;83.40
2387;DHT22;49473;50.772;8.768;2022-10-31T10:30:32;33.40;82.50
2387;DHT22;49473;50.772;8.768;2022-10-31T10:33:08;32.90;84.30
2387;DHT22;49473;50.772;8.768;2022-10-31T10:35:40;33.30;84.10
2387;DHT22;49473;50.772;8.768;2022-10-31T10:38:14;33.40;83.00
2387;DHT22;49473;50.772;8.768;2022-10-31T10:40:42;32.00;81.70
2387;DHT22;49473;50.772;8.768;2022-10-31T10:43:22;31.90;82.70
2387;DHT22;49473;50.772;8.768;2022-10-31T10:45:58;31.90;85.40
2387;DHT22;49473;50.772;8.768;2022-10-31T10:48:50;32.40;85.20
2387;DHT22;49473;50.772;8.768;2022-10-31T10:51:27;32.50;83.30
2387;DHT22;49473;50.772;8.768;2022-10-31T10:54:06;32.40;82.40
2387;DHT22;49473;50.772;8.768;2022-10-31T10:56:58;32.70;83.40
2387;DHT22;49473;50.772;8.768;2022-10-31T10:59:27;32.80;82.50
2387;DHT22;49473;50.772;8.768;2022-10-31T11:01:54;32.10;83.10
2387;DHT22;49473;50.772;8.768;2022-10-31T11:04:30;32.50;83.00
2387;DHT22;49473;50.772;8.768;2022-10-31T11:07:01;32.60;82.90
2387;DHT22;49473;50.772;8.768;2022-10-31T11:09:29;32.50;83.30
2387;DHT22;49473;50.772;8.768;2022-10-31T11:11:56;32.10;81.00
2387;DHT22;49473;50.772;8.768;2022-10-31T11:14:24;30.80;83.50
2387;DHT22;49473;50.772;8.768;2022-10-31T11:16:55;31.10;84.40
2387;DHT22;49473;50.772;8.768;2022-10-31T11:19:34;31.00;82.50
2387;DHT22;49473;50.772;8.768;2022-10-31T11:22:06;30.60;85.40
2387;DHT22;49473;50.772;8.768;2022-10-31T11:24:38;31.00;84.40
2387;DHT22;49473;50.772;8.768;2022-10-31T11:27:14;30.70;83.90
2387;DHT22;49473;50.772;8.768;2022-10-31T11:29:41;29.40;84.80
2387;DHT22;49473;50.772;8.768;2022-10-31T11:32:17;29.00;87.10
2387;DHT22;49473;50.772;8.768;2022-10-31T11:34:49;28.60;88.00
2387;DHT22;49473;50.772;8.768;2022-10-31T11:37:19;28.00;90.00
2387;DHT22;49473;50.772;8.768;2022-10-31T11:39:52;28.30;90.80
2387;DHT22;49473;50.772;8.768;2022-10-31T11:42:21;28.60;90.60
2387;DHT22;49473;50.772;8.768;2022-10-31T11:44:50;28.30;91.10
2387;DHT22;49473;50.772;8.768;2022-10-31T11:47:21;28.20;91.20
2387;DHT22;49473;50.772;8.768;2022-10-31T11:49:51;27.90;91.50
2387;DHT22;49473;50.772;8.768;2022-10-31T11:52:21;27.60;91.90
2387;DHT22;49473;50.772;8.768;2022-10-31T11:54:52;27.40;93.20
2387;DHT22;49473;50.772;8.768;2022-10-31T11:57:24;27.20;92.70
2387;DHT22;49473;50.772;8.768;2022-10-31T11:59:52;27.00;93.20
2387;DHT22;49473;50.772;8.768;2022-10-31T12:02:20;27.10;93.00
2387;DHT22;49473;50.772;8.768;2022-10-31T12:04:54;27.40;93.60
2387;DHT22;49473;50.772;8.768;2022-10-31T12:07:22;27.60;93.40
2387;DHT22;49473;50.772;8.768;2022-10-31T12:09:49;28.00;94.00
2387;DHT22;49473;50.772;8.768;2022-10-31T12:12:34;28.00;92.80
2387;DHT22;49473;50.772;8.768;2022-10-31T12:15:19;28.00;92.80
2387;DHT22;49473;50.772;8.768;2022-10-31T12:17:56;27.90;93.10
2387;DHT22;49473;50.772;8.768;2022-10-31T12:20:32;27.70;92.90
2387;DHT22;49473;50.772;8.768;2022-10-31T12:23:11;27.40;93.70
2387;DHT22;49473;50.772;8.768;2022-10-31T12:25:45;26.80;93.80
2387;DHT22;49473;50.772;8.768;2022-10-31T12:28:33;26.30;94.00
2387;DHT22;49473;50.772;8.768;2022-10-31T12:31:14;26.30;95.60
2387;DHT22;49473;50.772;8.768;2022-10-31T12:33:53;26.00;95.30
2387;DHT22;49473;50.772;8.768;2022-10-31T12:36:33;25.90;96.90
2387;DHT22;49473;50.772;8.768;2022-10-31T12:39:17;25.40;96.30
2387;DHT22;49473;50.772;8.768;2022-10-31T12:41:51;24.30;97.90
2387;DHT22;49473;50.772;8.768;2022-10-31T12:44:35;24.00;99.70
2387;DHT22;49473;50.772;8.768;2022-10-31T12:47:26;23.90;99.90
2387;DHT22;49473;50.772;8.768;2022-10-31T12:50:00;23.90;99.90
2387;DHT22;49473;50.772;8.768;2022-10-31T12:52:50;23.40;99.90
2387;DHT22;49473;50.772;8.768;2022-10-31T12:55:38;22.60;99.90
2387;DHT22;49473;50.772;8.768;2022-10-31T12:58:10;22.40;99.90
2387;DHT22;49473;50.772;8.768;2022-10-31T13:00:44;21.80;99.90
2387;DHT22;49473;50.772;8.768;2022-10-31T13:03:20;21.50;99.90
2387;DHT22;49473;50.772;8.768;2022-10-31T13:05:51;21.60;99.90
2387;DHT22;49473;50.772;8.768;2022-10-31T13:08:22;21.60;99.90
2387;DHT22;49473;50.772;8.768;2022-10-31T13:10:59;21.50;99.90
2387;DHT22;49473;50.772;8.768;2022-10-31T13:13:33;21.60;99.90
2387;DHT22;49473;50.772;8.768;2022-10-31T13:16:07;21.60;99.90
2387;DHT22;49473;50.772;8.768;2022-10-31T13:18:41;21.60;99.90
2387;DHT22;49473;50.772;8.768;2022-10-31T13:21:12;21.70;99.90
2387;DHT22;49473;50.772;8.768;2022-10-31T13:23:42;21.80;99.90
2387;DHT22;49473;50.772;8.768;2022-10-31T13:26:12;21.60;99.90
2387;DHT22;49473;50.772;8.768;2022-10-31T13:28:50;21.50;99.90
2387;DHT22;49473;50.772;8.768;2022-10-31T13:31:18;21.00;99.90
2387;DHT22;49473;50.772;8.768;2022-10-31T13:33:48;20.50;99.90
2387;DHT22;49473;50.772;8.768;2022-10-31T13:36:25;20.00;99.90
2387;DHT22;49473;50.772;8.768;2022-10-31T13:38:59;19.80;99.90
2387;DHT22;49473;50.772;8.768;2022-10-31T13:41:34;19.50;99.90
2387;DHT22;49473;50.772;8.768;2022-10-31T13:44:11;19.40;99.90
2387;DHT22;49473;50.772;8.768;2022-10-31T13:46:40;19.50;99.90
2387;DHT22;49473;50.772;8.768;2022-10-31T13:49:25;19.50;99.90
2387;DHT22;49473;50.772;8.768;2022-10-31T13:51:52;19.50;99.90
2387;DHT22;49473;50.772;8.768;2022-10-31T13:54:23;19.50;99.90
2387;DHT22;49473;50.772;8.768;2022-10-31T13:56:51;19.60;99.90
2387;DHT22;49473;50.772;8.768;2022-10-31T13:59:21;19.60;99.90
2387;DHT22;49473;50.772;8.768;2022-10-31T14:01:51;19.70;99.90
2387;DHT22;49473;50.772;8.768;2022-10-31T14:04:23;19.50;99.90
2387;DHT22;49473;50.772;8.768;2022-10-31T14:06:55;19.40;99.90
2387;DHT22;49473;50.772;8.768;2022-10-31T14:09:31;19.40;99.90
2387;DHT22;49473;50.772;8.768;2022-10-31T14:12:01;19.30;99.90
2387;DHT22;49473;50.772;8.768;2022-10-31T14:14:41;19.30;99.90
2387;DHT22;49473;50.772;8.768;2022-10-31T14:17:17;19.10;99.90
2387;DHT22;49473;50.772;8.768;2022-10-31T14:19:56;19.00;99.90
2387;DHT22;49473;50.772;8.768;2022-10-31T14:22:29;18.90;99.90
2387;DHT22;49473;50.772;8.768;2022-10-31T14:24:57;18.90;99.90
2387;DHT22;49473;50.772;8.768;2022-10-31T14:27:33;18.90;99.90
2387;DHT22;49473;50.772;8.768;2022-10-31T14:30:14;18.80;99.90
2387;DHT22;49473;50.772;8.768;2022-10-31T14:32:42;18.70;99.90
2387;DHT22;49473;50.772;8.768;2022-10-31T14:35:14;18.80;99.90
2387;DHT22;49473;50.772;8.768;2022-10-31T14:38:03;18.90;99.90
2387;DHT22;49473;50.772;8.768;2022-10-31T14:40:42;19.00;99.90
2387;DHT22;49473;50.772;8.768;2022-10-31T14:46:32;18.80;99.90
2387;DHT22;49473;50.772;8.768;2022-10-31T14:49:16;18.70;99.90
2387;DHT22;49473;50.772;8.768;2022-10-31T14:51:47;18.70;99.90
2387;DHT22;49473;50.772;8.768;2022-10-31T14:54:17;18.60;99.90
2387;DHT22;49473;50.772;8.768;2022-10-31T14:56:50;18.50;99.90
2387;DHT22;49473;50.772;8.768;2022-10-31T14:59:21;18.40;99.90
2387;DHT22;49473;50.772;8.768;2022-10-31T15:01:55;18.40;99.90
2387;DHT22;49473;50.772;8.768;2022-10-31T15:04:25;18.30;99.90
2387;DHT22;49473;50.772;8.768;2022-10-31T15:06:54;18.30;99.90
2387;DHT22;49473;50.772;8.768;2022-10-31T15:09:26;18.20;99.90
2387;DHT22;49473;50.772;8.768;2022-10-31T15:11:54;18.00;99.90
2387;DHT22;49473;50.772;8.768;2022-10-31T15:14:23;18.00;99.90
2387;DHT22;49473;50.772;8.768;2022-10-31T15:16:52;17.90;99.90
2387;DHT22;49473;50.772;8.768;2022-10-31T15:19:23;17.80;99.90
2387;DHT22;49473;50.772;8.768;2022-10-31T15:21:51;17.90;99.90
2387;DHT22;49473;50.772;8.768;2022-10-31T15:24:19;17.90;99.90
2387;DHT22;49473;50.772;8.768;2022-10-31T15:26:48;18.00;99.90
2387;DHT22;49473;50.772;8.768;2022-10-31T15:29:20;17.90;99.90
2387;DHT22;49473;50.772;8.768;2022-10-31T15:31:52;17.90;99.90
2387;DHT22;49473;50.772;8.768;2022-10-31T15:34:26;17.80;99.90
2387;DHT22;49473;50.772;8.768;2022-10-31T15:36:54;17.70;99.90
2387;DHT22;49473;50.772;8.768;2022-10-31T15:39:21;17.60;99.90
2387;DHT22;49473;50.772;8.768;2022-10-31T15:41:49;17.50;99.90
2387;DHT22;49473;50.772;8.768;2022-10-31T15:44:21;17.50;99.90
2387;DHT22;49473;50.772;8.768;2022-10-31T15:46:54;17.40;99.90
2387;DHT22;49473;50.772;8.768;2022-10-31T15:49:32;17.50;99.90
2387;DHT22;49473;50.772;8.768;2022-10-31T15:52:07;17.40;99.90
2387;DHT22;49473;50.772;8.768;2022-10-31T15:54:46;17.40;99.90
2387;DHT22;49473;50.772;8.768;2022-10-31T15:57:13;17.30;99.90
2387;DHT22;49473;50.772;8.768;2022-10-31T15:59:45;17.00;99.90
2387;DHT22;49473;50.772;8.768;2022-10-31T16:02:13;17.00;99.90
2387;DHT22;49473;50.772;8.768;2022-10-31T16:04:49;16.90;99.90
2387;DHT22;49473;50.772;8.768;2022-10-31T16:07:18;16.90;99.90
2387;DHT22;49473;50.772;8.768;2022-10-31T16:09:53;16.60;99.90
2387;DHT22;49473;50.772;8.768;2022-10-31T16:12:20;16.40;99.90
2387;DHT22;49473;50.772;8.768;2022-10-31T16:14:50;16.20;99.90
2387;DHT22;49473;50.772;8.768;2022-10-31T16:17:19;16.20;99.90
2387;DHT22;49473;50.772;8.768;2022-10-31T16:19:54;16.10;99.90